createdAt,value
2017-08-14T00:01:05.047Z,67.40
2017-08-14T00:03:31.254Z,66.60
2017-08-14T00:05:57.417Z,66.70
2017-08-14T00:08:23.585Z,66.80
2017-08-14T00:10:50.962Z,66.80
2017-08-14T00:13:17.141Z,67.20
2017-08-14T00:15:43.325Z,67.00
2017-08-14T00:18:09.475Z,67.20
2017-08-14T00:20:35.618Z,67.60
2017-08-14T00:23:01.786Z,68.00
2017-08-14T00:25:28.705Z,68.30
2017-08-14T00:27:54.862Z,67.90
2017-08-14T00:30:21.868Z,68.00
2017-08-14T00:32:48.031Z,67.30
2017-08-14T00:35:14.955Z,68.60
2017-08-14T00:37:56.069Z,67.90
2017-08-14T00:40:22.242Z,67.80
2017-08-14T00:42:48.433Z,68.30
2017-08-14T00:45:14.605Z,68.50
2017-08-14T00:47:40.847Z,68.50
2017-08-14T00:50:07.015Z,68.20
2017-08-14T00:52:33.261Z,68.10
2017-08-14T00:54:59.413Z,68.60
2017-08-14T00:57:26.534Z,69.00
2017-08-14T00:59:52.731Z,68.30
2017-08-14T01:02:19.599Z,69.40
2017-08-14T01:04:45.746Z,68.30
2017-08-14T01:07:11.895Z,68.30
2017-08-14T01:09:38.034Z,69.10
2017-08-14T01:12:04.222Z,69.70
2017-08-14T01:14:30.400Z,70.60
2017-08-14T01:16:57.367Z,70.00
2017-08-14T01:19:24.280Z,70.20
2017-08-14T01:21:50.476Z,70.20
2017-08-14T01:24:16.631Z,70.80
2017-08-14T01:26:42.884Z,71.00
2017-08-14T01:29:09.887Z,71.30
2017-08-14T01:31:36.014Z,70.10
2017-08-14T01:34:02.217Z,71.00
2017-08-14T01:36:28.394Z,70.20
2017-08-14T01:38:54.538Z,70.70
2017-08-14T01:41:20.713Z,70.70
2017-08-14T01:43:46.858Z,70.20
2017-08-14T01:46:13.006Z,69.90
2017-08-14T01:48:39.165Z,70.50
2017-08-14T01:51:06.065Z,70.50
2017-08-14T01:53:32.241Z,70.40
2017-08-14T01:55:58.382Z,70.20
2017-08-14T01:58:24.568Z,70.10
2017-08-14T02:00:51.503Z,70.40
2017-08-14T02:03:17.661Z,70.10
2017-08-14T02:05:44.753Z,69.00
2017-08-14T02:08:11.310Z,68.50
2017-08-14T02:10:37.883Z,68.30
2017-08-14T02:13:04.828Z,69.20
2017-08-14T02:15:31.029Z,69.00
2017-08-14T02:17:57.203Z,69.30
2017-08-14T02:20:23.380Z,68.80
2017-08-14T02:22:49.543Z,69.20
2017-08-14T02:25:16.427Z,69.20
2017-08-14T02:27:42.638Z,69.20
2017-08-14T02:30:08.795Z,68.80
2017-08-14T02:32:34.984Z,69.10
2017-08-14T02:35:01.152Z,69.00
2017-08-14T02:37:27.333Z,68.70
2017-08-14T02:39:53.530Z,69.10
2017-08-14T02:42:20.479Z,69.40
2017-08-14T02:44:46.640Z,69.70
2017-08-14T02:47:13.943Z,69.30
2017-08-14T02:49:40.072Z,69.60
2017-08-14T02:52:06.243Z,70.20
2017-08-14T02:54:32.438Z,70.20
2017-08-14T02:56:58.608Z,70.70
2017-08-14T02:59:26.522Z,71.00
2017-08-14T03:01:52.710Z,70.40
2017-08-14T03:04:18.900Z,70.30
2017-08-14T03:06:45.810Z,70.90
2017-08-14T03:09:11.989Z,70.80
2017-08-14T03:11:38.906Z,71.60
2017-08-14T03:14:05.076Z,71.50
2017-08-14T03:16:31.219Z,71.30
2017-08-14T03:18:57.395Z,71.90
2017-08-14T03:21:23.594Z,71.80
2017-08-14T03:23:49.758Z,72.00
2017-08-14T03:26:17.637Z,70.70
2017-08-14T03:28:44.575Z,71.10
2017-08-14T03:31:11.473Z,71.20
2017-08-14T03:33:37.625Z,70.60
2017-08-14T03:36:03.790Z,71.00
2017-08-14T03:38:30.715Z,71.50
2017-08-14T03:40:56.926Z,70.70
2017-08-14T03:43:23.135Z,71.50
2017-08-14T03:45:49.297Z,71.20
2017-08-14T03:48:16.400Z,71.00
2017-08-14T03:50:42.632Z,71.30
2017-08-14T03:53:08.803Z,71.50
2017-08-14T03:55:34.989Z,71.70
2017-08-14T03:58:01.165Z,72.00
2017-08-14T04:00:28.115Z,72.60
2017-08-14T04:02:55.041Z,72.10
2017-08-14T04:05:21.294Z,71.20
2017-08-14T04:07:48.213Z,72.50
2017-08-14T04:10:14.412Z,71.90
2017-08-14T04:12:40.558Z,71.90
2017-08-14T04:15:07.778Z,72.00
2017-08-14T04:17:33.948Z,72.50
2017-08-14T04:20:00.103Z,72.40
2017-08-14T04:22:27.694Z,74.00
2017-08-14T04:24:53.853Z,73.10
2017-08-14T04:27:20.050Z,73.20
2017-08-14T04:29:46.227Z,73.10
2017-08-14T04:32:12.419Z,72.90
2017-08-14T04:34:39.332Z,72.90
2017-08-14T04:37:05.532Z,72.90
2017-08-14T04:39:31.739Z,73.50
2017-08-14T04:41:57.890Z,74.10
2017-08-14T04:44:24.086Z,72.90
2017-08-14T04:46:50.309Z,73.90
2017-08-14T04:49:16.468Z,74.50
2017-08-14T04:51:42.625Z,74.70
2017-08-14T04:54:08.802Z,75.20
2017-08-14T04:56:35.033Z,76.00
2017-08-14T04:59:04.987Z,75.60
2017-08-14T05:01:31.163Z,75.40
2017-08-14T05:03:57.323Z,75.60
2017-08-14T05:06:23.518Z,75.90
2017-08-14T05:08:49.710Z,75.60
2017-08-14T05:11:15.934Z,76.00
2017-08-14T05:13:42.092Z,74.80
2017-08-14T05:16:08.302Z,75.50
2017-08-14T05:18:34.476Z,74.20
2017-08-14T05:21:00.658Z,74.20
2017-08-14T05:23:27.877Z,74.10
2017-08-14T05:25:54.202Z,73.70
2017-08-14T05:28:20.376Z,72.50
2017-08-14T05:30:46.564Z,71.80
2017-08-14T05:33:12.728Z,71.60
2017-08-14T05:35:39.847Z,70.60
2017-08-14T05:38:06.007Z,72.10
2017-08-14T05:40:32.212Z,70.20
2017-08-14T05:42:59.143Z,71.70
2017-08-14T05:45:25.306Z,71.80
2017-08-14T05:47:51.509Z,70.60
2017-08-14T05:50:18.420Z,70.80
2017-08-14T05:52:44.574Z,70.70
2017-08-14T05:55:10.759Z,69.30
2017-08-14T05:57:36.951Z,67.80
2017-08-14T06:00:03.845Z,67.30
2017-08-14T06:02:30.045Z,66.30
2017-08-14T06:04:56.191Z,65.40
2017-08-14T06:07:22.391Z,64.60
2017-08-14T06:09:48.577Z,64.70
2017-08-14T06:12:15.230Z,64.40
2017-08-14T06:14:41.453Z,63.90
2017-08-14T06:17:07.685Z,64.80
2017-08-14T06:19:33.877Z,63.80
2017-08-14T06:22:00.034Z,64.00
2017-08-14T06:24:26.192Z,63.30
2017-08-14T06:26:52.409Z,62.10
2017-08-14T06:29:19.691Z,61.80
2017-08-14T06:31:45.888Z,61.70
2017-08-14T06:34:12.796Z,61.60
2017-08-14T06:36:38.920Z,61.10
2017-08-14T06:39:05.125Z,58.90
2017-08-14T06:41:31.281Z,58.60
2017-08-14T06:43:57.479Z,59.70
2017-08-14T06:46:23.646Z,58.60
2017-08-14T06:48:49.793Z,59.30
2017-08-14T06:51:16.702Z,58.50
2017-08-14T06:53:42.901Z,57.60
2017-08-14T06:56:10.063Z,57.30
2017-08-14T06:58:37.222Z,56.40
2017-08-14T07:01:03.875Z,57.10
2017-08-14T07:03:30.025Z,56.00
2017-08-14T07:05:56.198Z,55.80
2017-08-14T07:08:22.383Z,57.00
2017-08-14T07:10:48.561Z,57.60
2017-08-14T07:13:14.767Z,58.70
2017-08-14T07:15:40.935Z,60.10
2017-08-14T07:18:07.102Z,60.80
2017-08-14T07:20:34.594Z,61.40
2017-08-14T07:23:00.755Z,61.80
2017-08-14T07:25:26.917Z,61.70
2017-08-14T07:27:53.805Z,62.60
2017-08-14T07:40:10.051Z,55.80
2017-08-14T07:42:37.195Z,55.20
2017-08-14T07:45:03.363Z,54.80
2017-08-14T07:47:29.520Z,54.60
2017-08-14T07:49:55.687Z,55.90
2017-08-14T07:52:21.901Z,57.60
2017-08-14T07:54:48.828Z,59.50
2017-08-14T07:57:15.017Z,59.50
2017-08-14T07:59:41.198Z,59.90
2017-08-14T08:02:08.103Z,60.30
2017-08-14T08:04:35.175Z,60.00
2017-08-14T08:07:01.382Z,60.30
2017-08-14T08:09:27.540Z,60.70
2017-08-14T08:11:54.471Z,61.10
2017-08-14T08:14:21.382Z,60.60
2017-08-14T08:16:47.550Z,60.00
2017-08-14T08:19:13.740Z,62.20
2017-08-14T08:21:39.933Z,62.30
2017-08-14T08:24:06.114Z,62.80
2017-08-14T08:26:33.929Z,60.20
2017-08-14T08:29:00.098Z,61.40
2017-08-14T08:31:26.246Z,62.60
2017-08-14T08:33:53.178Z,63.00
2017-08-14T08:36:19.346Z,63.30
2017-08-14T08:38:47.020Z,63.80
2017-08-14T08:41:13.182Z,63.80
2017-08-14T08:43:39.370Z,63.60
2017-08-14T08:46:06.304Z,64.50
2017-08-14T08:48:33.236Z,63.10
2017-08-14T08:50:59.407Z,62.50
2017-08-14T08:53:25.543Z,61.40
2017-08-14T08:55:52.479Z,61.60
2017-08-14T08:58:18.634Z,62.20
2017-08-14T09:00:44.830Z,62.30
2017-08-14T09:03:10.983Z,62.90
2017-08-14T09:05:37.136Z,63.10
2017-08-14T09:08:03.383Z,63.70
2017-08-14T09:10:29.652Z,64.20
2017-08-14T09:12:55.893Z,64.10
2017-08-14T09:15:22.623Z,65.00
2017-08-14T09:17:48.859Z,64.50
2017-08-14T09:30:00.354Z,63.90
2017-08-14T09:32:26.536Z,62.90
2017-08-14T09:34:53.252Z,63.30
2017-08-14T09:37:20.191Z,61.40
2017-08-14T09:39:47.075Z,60.80
2017-08-14T09:42:13.266Z,60.60
2017-08-14T09:44:40.834Z,57.40
2017-08-14T09:47:07.024Z,56.80
2017-08-14T09:49:33.181Z,56.90
2017-08-14T09:52:00.102Z,58.40
2017-08-14T09:54:26.277Z,57.70
2017-08-14T09:56:52.458Z,56.70
2017-08-14T09:59:18.662Z,55.40
2017-08-14T10:01:44.842Z,55.90
2017-08-14T10:04:11.755Z,53.60
2017-08-14T10:06:37.921Z,54.20
2017-08-14T10:09:04.096Z,51.20
2017-08-14T10:11:31.094Z,51.80
2017-08-14T10:13:57.990Z,50.80
2017-08-14T10:16:24.182Z,50.70
2017-08-14T10:18:50.378Z,50.20
2017-08-14T10:21:16.996Z,50.70
2017-08-14T10:23:43.139Z,51.00
2017-08-14T10:26:09.291Z,52.00
2017-08-14T10:28:35.424Z,52.30
2017-08-14T10:31:01.594Z,53.00
2017-08-14T10:33:28.163Z,53.40
2017-08-14T10:35:54.362Z,51.80
2017-08-14T10:38:20.521Z,52.10
2017-08-14T10:40:47.453Z,51.00
2017-08-14T10:43:13.654Z,51.00
2017-08-14T10:45:39.846Z,50.40
2017-08-14T10:48:06.817Z,50.10
2017-08-14T10:50:33.019Z,51.20
2017-08-14T10:52:59.233Z,51.60
2017-08-14T10:55:26.196Z,50.50
2017-08-14T10:57:52.334Z,50.40
2017-08-14T11:00:18.471Z,50.50
2017-08-14T11:02:44.683Z,49.10
2017-08-14T11:05:11.722Z,48.30
2017-08-14T11:07:38.402Z,49.80
2017-08-14T11:10:04.575Z,47.20
2017-08-14T11:12:31.503Z,47.30
2017-08-14T11:14:57.667Z,47.20
2017-08-14T11:17:23.862Z,47.60
2017-08-14T11:19:50.066Z,48.30
2017-08-14T11:32:01.363Z,47.20
2017-08-14T11:34:28.267Z,48.30
2017-08-14T11:36:54.433Z,47.60
2017-08-14T11:39:21.322Z,49.10
2017-08-14T11:41:47.462Z,49.30
2017-08-14T11:44:13.589Z,50.50
2017-08-14T11:46:39.841Z,50.40
2017-08-14T11:49:05.991Z,48.70
2017-08-14T11:51:32.193Z,47.20
2017-08-14T11:54:00.979Z,47.80
2017-08-14T11:56:28.344Z,47.60
2017-08-14T11:58:54.577Z,48.00
2017-08-14T12:01:21.474Z,48.10
2017-08-14T12:03:47.682Z,47.80
2017-08-14T12:06:13.994Z,48.40
2017-08-14T12:08:40.870Z,49.30
2017-08-14T12:11:07.119Z,49.20
2017-08-14T12:13:33.295Z,48.90
2017-08-14T12:15:59.505Z,49.30
2017-08-14T12:18:26.430Z,48.90
2017-08-14T12:20:52.640Z,49.40
2017-08-14T12:23:18.811Z,49.20
2017-08-14T12:25:45.715Z,49.50
2017-08-14T12:28:11.885Z,49.50
2017-08-14T12:30:38.066Z,48.60
2017-08-14T12:33:04.303Z,48.80
2017-08-14T12:35:31.387Z,49.30
2017-08-14T12:37:57.555Z,49.10
2017-08-14T12:40:24.465Z,48.50
2017-08-14T12:42:51.942Z,50.60
2017-08-14T12:45:18.146Z,48.70
2017-08-14T12:47:46.594Z,48.50
2017-08-14T12:50:12.800Z,48.70
2017-08-14T12:52:39.137Z,49.80
2017-08-14T12:55:05.323Z,48.60
2017-08-14T12:57:32.225Z,47.00
2017-08-14T12:59:58.386Z,47.40
2017-08-14T13:02:24.577Z,45.20
2017-08-14T13:04:50.703Z,45.10
2017-08-14T13:07:16.870Z,44.70
2017-08-14T13:09:43.056Z,43.40
2017-08-14T13:12:10.040Z,41.50
2017-08-14T13:14:36.214Z,41.60
2017-08-14T13:26:52.435Z,50.60
2017-08-14T13:29:24.983Z,51.90
2017-08-14T13:31:56.902Z,51.10
2017-08-14T13:34:23.065Z,52.30
2017-08-14T13:36:49.253Z,52.60
2017-08-14T13:39:16.175Z,54.50
2017-08-14T13:41:42.768Z,52.60
2017-08-14T13:44:09.911Z,49.30
2017-08-14T13:46:36.772Z,49.60
2017-08-14T13:49:03.003Z,47.20
2017-08-14T13:51:29.222Z,48.00
2017-08-14T13:53:55.402Z,49.30
2017-08-14T13:56:22.313Z,51.50
2017-08-14T13:58:48.530Z,51.90
2017-08-14T14:01:15.925Z,53.70
2017-08-14T14:03:42.398Z,53.90
2017-08-14T14:06:08.644Z,55.50
2017-08-14T14:08:34.834Z,54.50
2017-08-14T14:11:01.056Z,54.10
2017-08-14T14:13:27.246Z,51.50
2017-08-14T14:15:53.702Z,52.20
2017-08-14T14:18:19.909Z,50.70
2017-08-14T14:20:46.916Z,51.80
2017-08-14T14:23:13.102Z,50.90
2017-08-14T14:25:40.186Z,51.50
2017-08-14T14:28:06.401Z,53.50
2017-08-14T14:30:32.631Z,53.40
2017-08-14T14:32:59.531Z,54.00
2017-08-14T14:35:25.767Z,53.60
2017-08-14T14:37:51.943Z,54.00
2017-08-14T14:40:18.850Z,54.40
2017-08-14T14:42:45.080Z,53.70
2017-08-14T14:45:11.300Z,55.30
2017-08-14T14:47:38.069Z,55.60
2017-08-14T14:50:04.694Z,55.10
2017-08-14T14:52:30.906Z,54.80
2017-08-14T14:54:57.064Z,55.40
2017-08-14T14:57:31.894Z,55.70
2017-08-14T14:59:58.206Z,55.30
2017-08-14T15:02:24.387Z,54.90
2017-08-14T15:04:50.597Z,54.60
2017-08-14T15:07:17.504Z,55.90
2017-08-14T15:09:43.654Z,56.00
2017-08-14T15:12:10.968Z,56.00
2017-08-14T15:14:38.721Z,55.20
2017-08-14T15:17:04.907Z,56.80
2017-08-14T15:19:31.809Z,57.00
2017-08-14T15:21:57.982Z,55.70
2017-08-14T15:24:25.287Z,55.90
2017-08-14T15:26:51.526Z,56.30
2017-08-14T15:29:17.695Z,56.20
2017-08-14T15:31:44.617Z,56.50
2017-08-14T15:34:12.766Z,55.90
2017-08-14T15:36:54.373Z,56.00
2017-08-14T15:39:20.926Z,56.60
2017-08-14T15:41:47.944Z,56.30
2017-08-14T15:44:14.144Z,55.50
2017-08-14T15:46:40.290Z,53.90
2017-08-14T15:49:06.510Z,54.60
2017-08-14T15:51:32.700Z,54.60
2017-08-14T15:53:59.583Z,55.10
2017-08-14T15:56:25.760Z,55.10
2017-08-14T15:58:52.947Z,54.30
2017-08-14T16:01:19.150Z,53.60
2017-08-14T16:03:46.163Z,54.80
2017-08-14T16:06:12.961Z,54.30
2017-08-14T16:08:39.873Z,54.30
2017-08-14T16:11:06.078Z,54.20
2017-08-14T16:13:32.632Z,53.80
2017-08-14T16:15:58.811Z,54.60
2017-08-14T16:18:25.015Z,55.30
2017-08-14T16:20:51.953Z,56.20
2017-08-14T16:23:18.844Z,56.20
2017-08-14T16:25:45.008Z,55.80
2017-08-14T16:28:11.171Z,55.90
2017-08-14T16:30:37.431Z,56.10
2017-08-14T16:33:03.610Z,56.50
2017-08-14T16:35:30.579Z,57.60
2017-08-14T16:37:56.759Z,57.00
2017-08-14T16:40:22.926Z,57.00
2017-08-14T16:42:49.109Z,57.30
2017-08-14T16:45:15.293Z,58.20
2017-08-14T16:47:42.395Z,58.00
2017-08-14T16:50:08.945Z,57.90
2017-08-14T16:52:36.232Z,57.60
2017-08-14T16:55:02.378Z,57.00
2017-08-14T16:57:28.591Z,58.10
2017-08-14T16:59:54.762Z,58.50
2017-08-14T17:02:20.922Z,58.20
2017-08-14T17:04:47.849Z,58.60
2017-08-14T17:07:14.135Z,58.10
2017-08-14T17:09:40.301Z,58.20
2017-08-14T17:12:08.033Z,58.90
2017-08-14T17:14:34.231Z,58.50
2017-08-14T17:17:00.426Z,58.80
2017-08-14T17:19:26.605Z,58.80
2017-08-14T17:21:52.783Z,58.90
2017-08-14T17:24:18.966Z,59.90
2017-08-14T17:26:45.127Z,59.30
2017-08-14T17:29:11.325Z,59.40
2017-08-14T17:31:37.546Z,59.10
2017-08-14T17:34:03.706Z,60.10
2017-08-14T17:36:30.059Z,60.10
2017-08-14T17:38:56.268Z,59.50
2017-08-14T17:41:24.154Z,59.80
2017-08-14T17:43:50.451Z,59.70
2017-08-14T17:46:16.614Z,59.40
2017-08-14T17:48:42.798Z,60.80
2017-08-14T17:51:09.009Z,60.30
2017-08-14T17:53:35.263Z,58.80
2017-08-14T17:56:01.431Z,59.50
2017-08-14T17:58:28.371Z,61.60
2017-08-14T18:00:54.632Z,60.20
2017-08-14T18:03:20.795Z,60.60
2017-08-14T18:05:47.031Z,60.00
2017-08-14T18:08:13.184Z,59.80
2017-08-14T18:10:39.420Z,60.80
2017-08-14T18:13:05.950Z,61.00
2017-08-14T18:15:32.878Z,61.10
2017-08-14T18:17:59.129Z,61.30
2017-08-14T18:20:25.339Z,60.50
2017-08-14T18:22:51.523Z,61.00
2017-08-14T18:25:19.697Z,61.50
2017-08-14T18:27:45.915Z,61.60
2017-08-14T18:30:12.139Z,61.80
2017-08-14T18:32:38.357Z,61.50
2017-08-14T18:35:05.308Z,62.00
2017-08-14T18:37:31.525Z,61.30
2017-08-14T18:39:58.122Z,62.40
2017-08-14T18:42:24.290Z,62.40
2017-08-14T18:44:53.218Z,62.80
2017-08-14T18:47:20.916Z,63.40
2017-08-14T18:49:47.087Z,63.50
2017-08-14T18:52:14.446Z,64.10
2017-08-14T18:54:41.347Z,64.80
2017-08-14T18:57:08.441Z,64.90
2017-08-14T18:59:34.687Z,65.30
2017-08-14T19:02:01.106Z,65.90
2017-08-14T19:04:27.328Z,66.60
2017-08-14T19:06:54.255Z,67.40
2017-08-14T19:09:21.856Z,67.30
2017-08-14T19:11:46.697Z,67.50
2017-08-14T19:14:14.343Z,69.20
2017-08-14T19:16:42.164Z,68.20
2017-08-14T19:19:11.440Z,69.40
2017-08-14T19:21:42.497Z,69.00
2017-08-14T19:24:12.665Z,69.00
2017-08-14T19:26:38.977Z,69.50
2017-08-14T19:38:55.923Z,69.80
2017-08-14T19:41:23.261Z,69.60
2017-08-14T19:43:49.547Z,69.30
2017-08-14T19:46:15.749Z,69.90
2017-08-14T19:48:42.692Z,70.90
2017-08-14T19:51:10.103Z,70.70
2017-08-14T19:53:36.333Z,70.70
2017-08-14T19:56:02.560Z,69.80
2017-08-14T19:58:28.773Z,70.20
2017-08-14T20:00:54.991Z,70.70
2017-08-14T20:03:22.884Z,70.60
2017-08-14T20:05:52.584Z,70.70
2017-08-14T20:08:18.776Z,70.80
2017-08-14T20:10:45.732Z,71.90
2017-08-14T20:13:11.920Z,70.60
2017-08-14T20:15:38.123Z,72.70
2017-08-14T20:18:05.141Z,71.10
2017-08-14T20:20:31.363Z,71.00
2017-08-14T20:22:57.605Z,70.90
2017-08-14T20:25:23.808Z,71.50
2017-08-14T20:40:50.042Z,70.70
2017-08-14T20:43:16.249Z,71.40
2017-08-14T20:45:42.459Z,71.60
2017-08-14T20:48:09.420Z,72.90
2017-08-14T20:50:37.458Z,71.30
2017-08-14T20:53:03.699Z,71.70
2017-08-14T20:55:29.904Z,71.80
2017-08-14T20:57:56.160Z,71.80
2017-08-14T21:00:22.311Z,72.00
2017-08-14T21:02:49.238Z,72.60
2017-08-14T21:05:15.745Z,72.00
2017-08-14T21:07:42.035Z,71.20
2017-08-14T21:10:08.977Z,71.20
2017-08-14T21:12:35.896Z,72.00
2017-08-14T21:15:02.104Z,71.30
2017-08-14T21:17:28.267Z,71.50
2017-08-14T21:19:55.167Z,73.10
2017-08-14T21:22:21.311Z,71.80
2017-08-14T21:24:47.526Z,72.40
2017-08-14T21:27:13.693Z,72.60
2017-08-14T21:29:39.856Z,71.80
2017-08-14T21:32:06.056Z,72.60
2017-08-14T21:34:33.033Z,73.20
2017-08-14T21:36:59.977Z,73.20
2017-08-14T21:39:26.150Z,72.40
2017-08-14T21:41:52.380Z,72.90
2017-08-14T21:44:18.573Z,72.30
2017-08-14T21:46:44.734Z,73.20
2017-08-14T21:49:11.894Z,72.70
2017-08-14T21:51:38.100Z,72.20
2017-08-14T21:54:04.354Z,72.70
2017-08-14T21:56:31.288Z,72.20
2017-08-14T21:58:57.447Z,72.50
2017-08-14T22:01:24.370Z,73.20
2017-08-14T22:03:50.560Z,73.10
2017-08-14T22:06:16.732Z,73.10
2017-08-14T22:08:42.922Z,73.50
2017-08-14T22:11:10.174Z,72.40
2017-08-14T22:13:37.227Z,72.50
2017-08-14T22:16:03.441Z,72.80
2017-08-14T22:18:30.044Z,73.20
2017-08-14T22:20:57.063Z,73.00
2017-08-14T22:23:23.302Z,73.40
2017-08-14T22:25:49.517Z,72.40
2017-08-14T22:28:15.712Z,73.40
2017-08-14T22:30:41.901Z,73.60
2017-08-14T22:33:09.355Z,72.60
2017-08-14T22:35:36.278Z,73.60
2017-08-14T22:38:02.472Z,73.60
2017-08-14T22:40:28.625Z,72.60
2017-08-14T22:42:54.810Z,73.50
2017-08-14T22:45:20.972Z,73.10
2017-08-14T22:47:48.971Z,73.00
2017-08-14T22:50:15.211Z,73.30
2017-08-14T22:52:41.355Z,73.80
2017-08-14T22:55:08.301Z,74.40
2017-08-14T22:57:36.776Z,73.50
2017-08-14T23:00:03.698Z,74.90
2017-08-14T23:02:30.602Z,74.00
2017-08-14T23:04:56.826Z,74.20
2017-08-14T23:07:23.006Z,73.70
2017-08-14T23:09:49.179Z,74.10
2017-08-14T23:12:15.402Z,75.10
2017-08-14T23:14:41.555Z,74.90
2017-08-14T23:17:07.738Z,75.50
2017-08-14T23:19:34.662Z,75.30
2017-08-14T23:22:00.854Z,75.20
2017-08-14T23:24:27.059Z,74.70
2017-08-14T23:26:53.802Z,75.00
2017-08-14T23:29:20.970Z,75.40
2017-08-14T23:31:47.144Z,74.60
2017-08-14T23:34:14.087Z,75.10
2017-08-14T23:36:40.225Z,75.00
2017-08-14T23:39:07.146Z,76.10
2017-08-14T23:41:33.298Z,75.00
2017-08-14T23:44:00.174Z,75.50
2017-08-14T23:46:26.795Z,74.90
2017-08-14T23:48:53.403Z,74.90
2017-08-14T23:51:19.527Z,74.90
2017-08-14T23:53:45.734Z,75.00
2017-08-14T23:56:11.909Z,75.40
2017-08-14T23:58:38.855Z,76.00
